ADDS METAR Data INFO
IDs: Format: Raw Decoded Include TAF

Data at: 0108 UTC 21 Oct 2017

KAPF 210053Z 06011KT 10SM OVC080 25/22 A3003 RMK AO2 SLP166 T02500222
KAPF 202353Z 06015G24KT 10SM BKN090 OVC110 26/22 A3001 RMK AO2 PK WND 06026/2331 SLP161 T02560222 10311 20250 53012
KAPF 202253Z 05016G22KT 10SM FEW017 OVC095 26/23 A2999 RMK AO2 SLP154 T02560228
KAPF 202153Z 05013KT 10SM FEW095 26/23 A2997 RMK AO2 SLP149 T02610228
KAPF 202053Z 05017G22KT 10SM FEW043 FEW050 SCT110 28/23 A2998 RMK AO2 SLP150 T02830228 56006
KAPF 201953Z 07016KT 10SM FEW028 SCT050 SCT055 29/23 A2998 RMK AO2 PK WND 05027/1913 SLP150 T02890233
KAPF 201853Z 05017G21KT 10SM SCT035 BKN048 31/23 A2997 RMK AO2 SLP148 T03060233
KAPF 201753Z 05014G19KT 10SM SCT034 BKN046 30/23 A2999 RMK AO2 SLP156 T03000228 10311 20239 58018
KAPF 201653Z 06016G20KT 10SM SCT027 BKN037 29/23 A3002 RMK AO2 SLP166 T02940228
KAPF 201553Z 05017G21KT 10SM SCT027 BKN041 29/23 A3004 RMK AO2 SLP173 T02890228
KAPF 201453Z 07015G21KT 10SM SCT020 SCT034 28/23 A3005 RMK AO2 SLP174 T02780233 50005
KAPF 201353Z 05014G21KT 10SM CLR 27/23 A3005 RMK AO2 SLP176 T02670233
KAPF 201253Z 04011KT 10SM CLR 26/23 A3004 RMK AO2 SLP171 T02560233
KAPF 201153Z 04009KT 10SM CLR 24/23 A3003 RMK AO2 SLP169 T02390228 10250 20233 51005
KAPF 201053Z 04007KT 10SM CLR 24/23 A3003 RMK AO2 SLP168 T02390228
KAPF 200953Z AUTO 04007KT 10SM BKN110 24/23 A3003 RMK AO2 SLP166 T02390228
KAPF 200853Z AUTO 03007KT 10SM CLR 24/23 A3002 RMK AO2 SLP164 T02390228 55005
KAPF 200753Z AUTO 04008KT 10SM CLR 24/23 A3002 RMK AO2 SLP163 T02390228
KAPF 200653Z AUTO 05008KT 10SM OVC110 24/23 A3002 RMK AO2 SLP165 T02440228
KAPF 200553Z AUTO 04006KT 10SM OVC110 25/23 A3003 RMK AO2 SLP169 T02500228 10267 20250 58007
KAPF 200453Z AUTO 06006KT 10SM OVC110 25/22 A3004 RMK AO2 SLP172 T02500222 403110228
KAPF 200353Z AUTO 05008KT 10SM OVC110 25/23 A3005 RMK AO2 SLP175 T02500228
KAPF 200253Z AUTO 07010KT 10SM CLR 25/23 A3006 RMK AO2 SLP176 T02500228 53019
KAPF 200153Z AUTO 06009KT 10SM CLR 26/23 A3003 RMK AO2 SLP167 T02560228
KAPF 200053Z 06010KT 10SM CLR 26/23 A3001 RMK AO2 SLP162 T02610228
KAPF 192353Z 06013G18KT 10SM FEW070 27/22 A3000 RMK AO2 SLP157 T02670217 10311 20267 53013
KAPF 192253Z 07012KT 10SM SCT070 28/22 A2998 RMK AO2 SLP150 T02830222
KAPF 192153Z 07010KT 10SM FEW043 BKN065 OVC110 29/22 A2997 RMK AO2 SLP146 T02890222
KAPF 192053Z 09009KT 10SM SCT040 BKN050 BKN075 29/23 A2996 RMK AO2 SLP144 T02940228 56012
KAPF 191953Z 05009KT 10SM FEW036 SCT060 29/22 A2997 RMK AO2 SLP146 T02890222
KAPF 191900Z 07010KT 10SM FEW034 SCT048 31/23 A2997 RMK AO2 T03060228
KAPF 191853Z 05007KT 10SM BKN027 BKN060 29/23 A2997 RMK AO2 SLP147 T02940228
KAPF 191753Z 02007KT 10SM BKN022 BKN050 29/22 A3000 RMK AO2 SLP156 T02890222 10294 20228 58016
KAPF 191653Z 05010KT 10SM BKN022 BKN050 29/23 A3002 RMK AO2 SLP164 T02890228
KAPF 191600Z 03008KT 10SM FEW027 FEW039 28/23 A3004 RMK AO2 T02780228
KAPF 191553Z 07010KT 10SM BKN022 29/23 A3004 RMK AO2 SLP172 T02890233
KAPF 191548Z 07008KT 10SM BKN022 28/23 A3004 RMK AO2
KAPF 191541Z 06010KT 10SM BKN036 28/23 A3004 RMK AO2 T02830228
KAPF 191507Z 06014KT 10SM BKN021 28/23 A3004 RMK AO2 T02780228
KAPF 191453Z 04012KT 10SM FEW021 27/23 A3004 RMK AO2 SLP173 T02720228 51009
KAPF 191353Z 05008KT 10SM FEW016 26/23 A3004 RMK AO2 SLP172 T02610228